createdAt,value
2017-12-08T00:00:05.583Z,29.7
2017-12-08T00:02:07.842Z,29.7
2017-12-08T00:04:05.559Z,29.7
2017-12-08T00:06:05.503Z,29.7
2017-12-08T00:08:05.985Z,29.6
2017-12-08T00:10:05.758Z,29.7
2017-12-08T00:12:13.592Z,29.7
2017-12-08T00:14:05.274Z,29.7
2017-12-08T00:16:05.263Z,29.7
2017-12-08T00:18:05.402Z,29.7
2017-12-08T00:20:05.106Z,29.7
2017-12-08T00:22:05.938Z,29.7
2017-12-08T00:24:05.678Z,29.7
2017-12-08T00:26:07.886Z,29.7
2017-12-08T00:28:05.203Z,29.7
2017-12-08T00:30:08.409Z,29.7
2017-12-08T00:32:05.074Z,29.7
2017-12-08T00:34:05.753Z,29.7
2017-12-08T00:36:05.437Z,29.7
2017-12-08T00:38:05.728Z,29.5
2017-12-08T00:40:05.568Z,29.5
2017-12-08T00:42:05.281Z,29.5
2017-12-08T00:44:05.008Z,29.5
2017-12-08T00:46:05.732Z,29.6
2017-12-08T00:48:05.394Z,29.6
2017-12-08T00:50:08.203Z,29.6
2017-12-08T00:52:05.977Z,29.6
2017-12-08T00:54:05.660Z,29.6
2017-12-08T00:56:07.956Z,29.6
2017-12-08T00:58:05.722Z,29.4
2017-12-08T01:00:05.447Z,29.4
2017-12-08T01:02:05.186Z,29.4
2017-12-08T01:04:08.421Z,29.5
2017-12-08T01:06:07.638Z,29.5
2017-12-08T01:08:05.897Z,29.5
2017-12-08T01:10:05.194Z,29.5
2017-12-08T01:12:05.874Z,29.5
2017-12-08T01:14:05.831Z,29.5
2017-12-08T01:16:05.581Z,29.5
2017-12-08T01:18:05.543Z,29.5
2017-12-08T01:20:05.257Z,29.5
2017-12-08T01:22:05.975Z,29.5
2017-12-08T01:24:05.285Z,29.4
2017-12-08T01:26:05.554Z,29.4
2017-12-08T01:28:05.309Z,29.4
2017-12-08T01:30:05.065Z,29.4
2017-12-08T01:32:05.858Z,29.4
2017-12-08T01:34:07.656Z,29.5
2017-12-08T01:36:05.371Z,29.5
2017-12-08T01:38:05.157Z,29.4
2017-12-08T01:40:07.992Z,29.4
2017-12-08T01:42:08.290Z,29.4
2017-12-08T01:44:06.059Z,29.4
2017-12-08T01:46:05.841Z,29.4
2017-12-08T01:48:05.656Z,29.4
2017-12-08T01:50:05.403Z,29.3
2017-12-08T01:52:05.153Z,29.3
2017-12-08T01:54:05.899Z,29.5
2017-12-08T01:56:05.629Z,29.3
2017-12-08T01:58:10.454Z,29.3
2017-12-08T02:00:07.812Z,29.3
2017-12-08T02:02:05.118Z,29.3
2017-12-08T02:04:08.459Z,29.3
2017-12-08T02:06:05.236Z,29.3
2017-12-08T02:08:05.520Z,29.3
2017-12-08T02:10:05.337Z,29.4
2017-12-08T02:12:05.074Z,29.4
2017-12-08T02:14:05.870Z,29.5
2017-12-08T02:16:05.624Z,29.4
2017-12-08T02:18:05.628Z,29.3
2017-12-08T02:20:05.619Z,29.3
2017-12-08T02:22:08.006Z,29.3
2017-12-08T02:24:08.287Z,29.3
2017-12-08T02:26:06.021Z,29.3
2017-12-08T02:28:07.789Z,29.5
2017-12-08T02:30:05.023Z,29.4
2017-12-08T02:32:05.799Z,29.3
2017-12-08T02:34:05.660Z,29.3
2017-12-08T02:36:07.948Z,29.3
2017-12-08T02:38:05.731Z,29.3
2017-12-08T02:40:07.984Z,29.3
2017-12-08T02:42:05.788Z,29.3
2017-12-08T02:44:05.115Z,29.3
2017-12-08T02:46:05.453Z,29.3
2017-12-08T02:48:07.737Z,29.3
2017-12-08T02:50:05.999Z,29.5
2017-12-08T02:52:05.797Z,29.3
2017-12-08T02:54:05.599Z,29.3
2017-12-08T02:56:05.451Z,29.4
2017-12-08T02:58:05.246Z,29.3
2017-12-08T03:00:05.518Z,29.3
2017-12-08T03:02:05.303Z,29.4
2017-12-08T03:04:05.143Z,29.3
2017-12-08T03:06:05.646Z,29.3
2017-12-08T03:08:05.573Z,29.3
2017-12-08T03:10:05.380Z,29.3
2017-12-08T03:12:10.791Z,29.3
2017-12-08T03:14:05.093Z,29.3
2017-12-08T03:16:05.866Z,29.3
2017-12-08T03:18:05.820Z,29.3
2017-12-08T03:20:05.541Z,29.3
2017-12-08T03:22:05.308Z,29.3
2017-12-08T03:24:05.687Z,29.3
2017-12-08T03:26:05.452Z,29.3
2017-12-08T03:28:08.303Z,29.1
2017-12-08T03:30:05.031Z,29.3
2017-12-08T03:32:08.291Z,29.3
2017-12-08T03:34:06.031Z,29.3
2017-12-08T03:36:05.798Z,29.1
2017-12-08T03:38:05.574Z,29.2
2017-12-08T03:40:10.980Z,29.1
2017-12-08T03:42:05.823Z,29.3
2017-12-08T03:44:08.077Z,29.1
2017-12-08T03:46:08.388Z,29.3
2017-12-08T03:48:05.227Z,29.3
2017-12-08T03:50:08.489Z,29.2
2017-12-08T03:52:07.750Z,29.2
2017-12-08T03:54:05.482Z,29.2
2017-12-08T03:56:05.227Z,29.1
2017-12-08T03:58:05.531Z,29.2
2017-12-08T04:00:05.289Z,29.2
2017-12-08T04:02:05.588Z,29.1
2017-12-08T04:04:05.330Z,29.1
2017-12-08T04:06:10.107Z,29.2
2017-12-08T04:08:05.861Z,29.2
2017-12-08T04:10:05.671Z,29.2
2017-12-08T04:12:05.464Z,29.2
2017-12-08T04:14:05.740Z,29.1
2017-12-08T04:16:05.869Z,29.2
2017-12-08T04:18:05.839Z,29.2
2017-12-08T04:20:05.586Z,29.2
2017-12-08T04:22:07.955Z,29.1
2017-12-08T04:24:08.194Z,29.1
2017-12-08T04:26:05.929Z,29.1
2017-12-08T04:28:12.814Z,29.1
2017-12-08T04:30:08.121Z,29.1
2017-12-08T04:32:05.380Z,29.1
2017-12-08T04:34:10.197Z,29.1
2017-12-08T04:36:05.940Z,29.1
2017-12-08T04:38:08.266Z,29.1
2017-12-08T04:40:05.529Z,28.9
2017-12-08T04:42:05.277Z,28.9
2017-12-08T04:44:05.039Z,28.9
2017-12-08T04:46:05.764Z,29.1
2017-12-08T04:48:08.575Z,29
2017-12-08T04:50:05.351Z,29
2017-12-08T04:52:05.104Z,29
2017-12-08T04:54:12.951Z,29
2017-12-08T04:56:05.690Z,29
2017-12-08T04:58:05.474Z,29
2017-12-08T05:00:05.325Z,29.1
2017-12-08T05:02:05.128Z,29.1
2017-12-08T05:04:05.940Z,29.1
2017-12-08T05:06:08.179Z,28.9
2017-12-08T05:08:05.889Z,28.9
2017-12-08T05:10:05.642Z,29
2017-12-08T05:12:05.330Z,28.9
2017-12-08T05:14:05.621Z,28.9
2017-12-08T05:16:05.416Z,28.9
2017-12-08T05:18:05.374Z,28.9
2017-12-08T05:20:05.129Z,28.9
2017-12-08T05:22:06.006Z,28.9
2017-12-08T05:24:05.855Z,28.9
2017-12-08T05:26:05.622Z,29.1
2017-12-08T05:28:05.941Z,29
2017-12-08T05:30:05.666Z,29
2017-12-08T05:32:05.930Z,29
2017-12-08T05:34:10.738Z,28.9
2017-12-08T05:36:05.547Z,29.1
2017-12-08T05:38:05.377Z,29.2
2017-12-08T05:40:05.106Z,29.1
2017-12-08T05:42:05.387Z,29.1
2017-12-08T05:44:05.637Z,29.1
2017-12-08T05:46:05.422Z,29.3
2017-12-08T05:48:05.263Z,29.1
2017-12-08T05:50:08.544Z,29.1
2017-12-08T05:52:05.913Z,29.2
2017-12-08T05:54:09.030Z,29.2
2017-12-08T05:56:05.483Z,29.2
2017-12-08T05:58:05.325Z,29.2
2017-12-08T06:00:05.151Z,29.2
2017-12-08T06:02:05.905Z,29.2
2017-12-08T06:04:05.179Z,29.1
2017-12-08T06:06:08.056Z,29.2
2017-12-08T06:08:05.747Z,29.2
2017-12-08T06:10:07.993Z,29.3
2017-12-08T06:12:05.821Z,29.2
2017-12-08T06:14:05.578Z,29.2
2017-12-08T06:16:07.850Z,29.3
2017-12-08T06:18:08.288Z,29.4
2017-12-08T06:20:05.294Z,29.2
2017-12-08T06:22:07.651Z,29.2
2017-12-08T06:24:05.427Z,29.2
2017-12-08T06:26:05.180Z,29.3
2017-12-08T06:28:10.989Z,29.2
2017-12-08T06:30:05.718Z,29.2
2017-12-08T06:32:10.535Z,29.5
2017-12-08T06:34:05.295Z,29.5
2017-12-08T06:36:05.066Z,29.4
2017-12-08T06:38:05.836Z,29.3
2017-12-08T06:40:08.160Z,29.4
2017-12-08T06:42:05.879Z,29.4
2017-12-08T06:44:05.688Z,29.3
2017-12-08T06:46:05.517Z,29.3
2017-12-08T06:48:05.249Z,29.7
2017-12-08T06:50:06.063Z,29.6
2017-12-08T06:52:05.350Z,29.4
2017-12-08T06:54:07.640Z,29.4
2017-12-08T06:56:05.497Z,29.4
2017-12-08T06:58:05.919Z,29.4
2017-12-08T07:00:08.249Z,29.4
2017-12-08T07:02:06.136Z,29.4
2017-12-08T07:04:08.535Z,29.5
2017-12-08T07:06:05.946Z,29.5
2017-12-08T07:08:05.765Z,29.4
2017-12-08T07:10:08.012Z,29.6
2017-12-08T07:12:08.268Z,29.8
2017-12-08T07:14:05.541Z,29.7
2017-12-08T07:16:10.364Z,29.6
2017-12-08T07:18:08.474Z,29.6
2017-12-08T07:20:05.242Z,29.6
2017-12-08T07:22:05.581Z,29.6
2017-12-08T07:24:12.977Z,29.8
2017-12-08T07:26:05.770Z,29.8
2017-12-08T07:28:08.184Z,30.1
2017-12-08T07:30:10.610Z,29.7
2017-12-08T07:32:05.453Z,29.7
2017-12-08T07:34:05.196Z,29.8
2017-12-08T07:36:05.948Z,29.8
2017-12-08T07:38:08.301Z,30.2
2017-12-08T07:40:05.087Z,30.3
2017-12-08T07:42:08.367Z,30
2017-12-08T07:44:07.645Z,30.3
2017-12-08T07:46:07.946Z,30
2017-12-08T07:48:05.657Z,30
2017-12-08T07:50:05.410Z,30.1
2017-12-08T07:52:07.665Z,31
2017-12-08T07:54:05.376Z,30.7
2017-12-08T07:56:05.149Z,31.1
2017-12-08T07:58:06.009Z,30.6
2017-12-08T08:00:06.042Z,30.3
2017-12-08T08:02:05.804Z,30.3
2017-12-08T08:04:05.590Z,30.1
2017-12-08T08:06:05.928Z,30.2
2017-12-08T08:08:05.766Z,30.1
2017-12-08T08:10:08.080Z,30.2
2017-12-08T08:12:05.936Z,30
2017-12-08T08:14:05.807Z,30.1
2017-12-08T08:16:05.587Z,30.1
2017-12-08T08:18:05.507Z,30.3
2017-12-08T08:20:05.907Z,30.2
2017-12-08T08:22:05.305Z,30
2017-12-08T08:24:05.142Z,30
2017-12-08T08:26:08.427Z,30.2
2017-12-08T08:28:05.444Z,30.2
2017-12-08T08:30:05.179Z,30.3
2017-12-08T08:32:13.510Z,30.3
2017-12-08T08:34:05.260Z,30.3
2017-12-08T08:36:08.545Z,30.3
2017-12-08T08:38:05.627Z,30.3
2017-12-08T08:40:05.559Z,30.5
2017-12-08T08:42:07.854Z,30.4
2017-12-08T08:44:05.284Z,30.4
2017-12-08T08:46:05.031Z,30.3
2017-12-08T08:48:08.296Z,30.6
2017-12-08T08:50:05.119Z,30.6
2017-12-08T08:52:05.896Z,30.5
2017-12-08T08:54:05.741Z,30.5
2017-12-08T08:56:05.500Z,30.5
2017-12-08T08:58:05.284Z,30.5
2017-12-08T09:00:05.107Z,30.6
2017-12-08T09:02:05.439Z,30.5
2017-12-08T09:04:05.718Z,30.4
2017-12-08T09:06:06.016Z,30.6
2017-12-08T09:08:05.355Z,30.5
2017-12-08T09:10:05.183Z,30.5
2017-12-08T09:12:05.950Z,30.5
2017-12-08T09:14:08.283Z,30.6
2017-12-08T09:16:05.079Z,30.6
2017-12-08T09:18:05.124Z,30.6
2017-12-08T09:20:05.938Z,30.4
2017-12-08T09:22:05.693Z,30.4
2017-12-08T09:24:05.427Z,30.6
2017-12-08T09:26:05.178Z,30.5
2017-12-08T09:28:05.933Z,30.4
2017-12-08T09:30:05.690Z,30.3
2017-12-08T09:32:05.457Z,30.4
2017-12-08T09:34:05.261Z,30.3
2017-12-08T09:36:06.000Z,30.5
2017-12-08T09:38:05.784Z,30.3
2017-12-08T09:40:05.591Z,30.3
2017-12-08T09:42:07.900Z,30.4
2017-12-08T09:44:05.157Z,30.4
2017-12-08T09:46:05.495Z,30.4
2017-12-08T09:48:05.352Z,30.6
2017-12-08T09:50:05.157Z,30.8
2017-12-08T09:52:08.441Z,30.9
2017-12-08T09:54:05.160Z,30.7
2017-12-08T09:56:06.019Z,31
2017-12-08T09:58:05.788Z,30.6
2017-12-08T10:00:08.068Z,30.6
2017-12-08T10:02:05.299Z,30.6
2017-12-08T10:04:05.085Z,30.8
2017-12-08T10:06:05.350Z,30.6
2017-12-08T10:08:05.187Z,31.1
2017-12-08T10:10:06.053Z,30.9
2017-12-08T10:12:05.876Z,31.1
2017-12-08T10:14:05.672Z,30.9
2017-12-08T10:16:05.506Z,31.1
2017-12-08T10:18:05.472Z,30.9
2017-12-08T10:20:12.850Z,31.2
2017-12-08T10:22:05.609Z,31.2
2017-12-08T10:24:05.350Z,31
2017-12-08T10:26:05.080Z,31.3
2017-12-08T10:28:05.831Z,31.2
2017-12-08T10:30:05.642Z,31
2017-12-08T10:32:05.403Z,30.9
2017-12-08T10:34:05.154Z,31.1
2017-12-08T10:36:05.996Z,31.2
2017-12-08T10:38:10.806Z,31
2017-12-08T10:40:05.659Z,31
2017-12-08T10:42:07.984Z,31
2017-12-08T10:44:05.280Z,30.8
2017-12-08T10:46:05.087Z,30.9
2017-12-08T10:48:05.371Z,31
2017-12-08T10:50:05.092Z,30.7
2017-12-08T10:52:08.434Z,30.8
2017-12-08T10:54:05.228Z,30.8
2017-12-08T10:56:05.095Z,31.1
2017-12-08T10:58:05.880Z,30.9
2017-12-08T11:00:05.624Z,30.9
2017-12-08T11:02:05.908Z,30.8
2017-12-08T11:04:08.225Z,30.7
2017-12-08T11:06:05.937Z,30.7
2017-12-08T11:08:05.766Z,30.8
2017-12-08T11:10:08.032Z,30.9
2017-12-08T11:12:05.754Z,30.9
2017-12-08T11:14:05.156Z,30.9
2017-12-08T11:16:05.223Z,30.9
2017-12-08T11:18:10.209Z,30.9
2017-12-08T11:20:05.994Z,30.8
2017-12-08T11:22:05.891Z,30.9
2017-12-08T11:24:10.697Z,30.9
2017-12-08T11:26:05.463Z,30.9
2017-12-08T11:28:05.197Z,30.8
2017-12-08T11:30:05.976Z,31
2017-12-08T11:32:05.717Z,30.9
2017-12-08T11:34:05.603Z,31.4
2017-12-08T11:36:10.508Z,30.5
2017-12-08T11:38:05.281Z,30.5
2017-12-08T11:40:07.612Z,30.3
2017-12-08T11:42:05.381Z,30.3
2017-12-08T11:44:05.409Z,30.6
2017-12-08T11:46:05.153Z,30.7
2017-12-08T11:48:05.508Z,31.2
2017-12-08T11:50:05.463Z,30.6
2017-12-08T11:52:05.271Z,30.7
2017-12-08T11:54:05.098Z,30.9
2017-12-08T11:56:05.859Z,30.3
2017-12-08T11:58:05.620Z,30.4
2017-12-08T12:00:07.882Z,30
2017-12-08T12:02:05.584Z,29.9
2017-12-08T12:04:05.432Z,30.9
2017-12-08T12:06:05.264Z,30.7
2017-12-08T12:08:08.051Z,30.4
2017-12-08T12:10:05.801Z,30.3
2017-12-08T12:12:05.648Z,30
2017-12-08T12:14:05.408Z,30
2017-12-08T12:16:05.218Z,30.3
2017-12-08T12:18:05.203Z,30.1
2017-12-08T12:20:05.925Z,30.1
2017-12-08T12:22:05.716Z,30.5
2017-12-08T12:24:07.994Z,30.3
2017-12-08T12:26:05.834Z,30.3
2017-12-08T12:28:05.603Z,30.3
2017-12-08T12:30:05.370Z,30.2
2017-12-08T12:32:05.112Z,29.9
2017-12-08T12:34:10.476Z,29.8
2017-12-08T12:36:05.261Z,29.8
2017-12-08T12:38:05.987Z,29.7
2017-12-08T12:40:05.742Z,29.8
2017-12-08T12:42:05.482Z,29.7
2017-12-08T12:44:05.255Z,29.7
2017-12-08T12:46:06.022Z,29.7
2017-12-08T12:48:05.760Z,29.9
2017-12-08T12:50:05.563Z,29.8
2017-12-08T12:52:05.933Z,29.8
2017-12-08T12:54:08.236Z,30
2017-12-08T12:56:06.007Z,30.1
2017-12-08T12:58:05.809Z,29.8
2017-12-08T13:00:05.639Z,29.9
2017-12-08T13:02:05.401Z,29.9
2017-12-08T13:04:05.211Z,30
2017-12-08T13:06:05.450Z,29.9
2017-12-08T13:08:05.449Z,29.6
2017-12-08T13:10:05.664Z,29.8
2017-12-08T13:12:05.454Z,29.8
2017-12-08T13:14:05.254Z,30
2017-12-08T13:16:11.080Z,30.4
2017-12-08T13:18:05.062Z,30.4
2017-12-08T13:20:08.300Z,29.2
2017-12-08T13:22:05.192Z,29.3
2017-12-08T13:24:05.939Z,29.1
2017-12-08T13:26:05.793Z,29.3
2017-12-08T13:28:08.099Z,29.2
2017-12-08T13:30:08.467Z,29.2
2017-12-08T13:32:07.739Z,29.2
2017-12-08T13:34:05.511Z,29.2
2017-12-08T13:36:10.462Z,29.1
2017-12-08T13:38:05.780Z,29.1
2017-12-08T13:40:05.564Z,29.3
2017-12-08T13:42:05.858Z,29
2017-12-08T13:44:05.638Z,29
2017-12-08T13:46:06.973Z,29
2017-12-08T13:48:08.267Z,29
2017-12-08T13:50:05.563Z,29
2017-12-08T13:52:05.390Z,28.9
2017-12-08T13:54:05.198Z,29
2017-12-08T13:56:05.949Z,29
2017-12-08T13:58:05.767Z,28.9
2017-12-08T14:00:05.456Z,28.9
2017-12-08T14:02:12.820Z,28.9
2017-12-08T14:04:08.190Z,28.7
2017-12-08T14:06:05.982Z,28.9
2017-12-08T14:08:08.281Z,28.8
2017-12-08T14:10:05.166Z,28.8
2017-12-08T14:12:08.003Z,28.8
2017-12-08T14:14:05.846Z,28.7
2017-12-08T14:16:05.599Z,28.9
2017-12-08T14:18:05.594Z,28.7
2017-12-08T14:20:05.373Z,28.9
2017-12-08T14:22:05.134Z,28.5
2017-12-08T14:24:05.869Z,28.7
2017-12-08T14:26:05.870Z,28.6
2017-12-08T14:28:05.648Z,28.6
2017-12-08T14:30:05.378Z,28.7
2017-12-08T14:32:05.627Z,28.5
2017-12-08T14:34:05.926Z,28.4
2017-12-08T14:36:05.711Z,28.5
2017-12-08T14:38:05.455Z,28.4
2017-12-08T14:40:05.231Z,28.6
2017-12-08T14:42:05.984Z,28.3
2017-12-08T14:44:05.782Z,28.5
2017-12-08T14:46:07.706Z,28.3
2017-12-08T14:48:05.544Z,28.3
2017-12-08T14:50:10.314Z,28.4
2017-12-08T14:52:05.117Z,28.5
2017-12-08T14:54:05.884Z,28.4
2017-12-08T14:56:05.679Z,28.3
2017-12-08T14:58:08.021Z,28.5
2017-12-08T15:00:06.757Z,28.5
2017-12-08T15:02:05.524Z,28.3
2017-12-08T15:04:05.302Z,28.2
2017-12-08T15:06:05.701Z,28.2
2017-12-08T15:08:05.454Z,28.4
2017-12-08T15:10:05.220Z,28.3
2017-12-08T15:12:11.029Z,28.5
2017-12-08T15:14:05.734Z,28.5
2017-12-08T15:16:10.538Z,28.5
2017-12-08T15:18:05.456Z,28.5
2017-12-08T15:20:07.795Z,28.3
2017-12-08T15:22:10.585Z,28.2
2017-12-08T15:24:07.856Z,28.2
2017-12-08T15:26:05.588Z,28.2
2017-12-08T15:28:05.320Z,28.2
2017-12-08T15:30:05.061Z,28
2017-12-08T15:32:05.851Z,28.2
2017-12-08T15:34:13.195Z,28.3
2017-12-08T15:36:06.474Z,28.3
2017-12-08T15:38:05.214Z,28.3
2017-12-08T15:40:08.316Z,28.4
2017-12-08T15:42:05.316Z,28.3
2017-12-08T15:44:05.140Z,28.3
2017-12-08T15:46:08.456Z,28.2
2017-12-08T15:48:07.741Z,28.2
2017-12-08T15:50:08.058Z,28.2
2017-12-08T15:52:05.891Z,28.2
2017-12-08T15:54:05.807Z,28.2
2017-12-08T15:56:08.095Z,28
2017-12-08T15:58:10.944Z,27.8
2017-12-08T16:00:05.695Z,28
2017-12-08T16:02:05.409Z,27.9
2017-12-08T16:04:07.671Z,28
2017-12-08T16:06:12.974Z,28
2017-12-08T16:08:10.843Z,28.2
2017-12-08T16:10:08.281Z,28
2017-12-08T16:12:06.070Z,28
2017-12-08T16:14:05.809Z,28.2
2017-12-08T16:16:05.567Z,28.2
2017-12-08T16:18:08.113Z,28.3
2017-12-08T16:20:05.959Z,28.2
2017-12-08T16:22:05.713Z,28.2
2017-12-08T16:24:05.555Z,28.2
2017-12-08T16:26:10.488Z,27.8
2017-12-08T16:28:08.232Z,28
2017-12-08T16:30:06.020Z,28
2017-12-08T16:32:10.675Z,28.1
2017-12-08T16:34:05.407Z,28.1
2017-12-08T16:36:05.390Z,28.1
2017-12-08T16:38:05.365Z,28.1
2017-12-08T16:40:05.153Z,28.3
2017-12-08T16:42:05.904Z,28.2
2017-12-08T16:44:05.220Z,28.1
2017-12-08T16:46:05.979Z,28.4
2017-12-08T16:48:05.720Z,28.2
2017-12-08T16:50:07.997Z,28.4
2017-12-08T16:52:05.731Z,28.2
2017-12-08T16:54:06.050Z,28.3
2017-12-08T16:56:06.177Z,28.2
2017-12-08T16:58:05.929Z,28.2
2017-12-08T17:00:05.505Z,28.2
2017-12-08T17:02:05.368Z,28.3
2017-12-08T17:04:05.352Z,28.4
2017-12-08T17:06:05.378Z,28.4
2017-12-08T17:08:05.884Z,28.4
2017-12-08T17:10:10.902Z,28.4
2017-12-08T17:12:06.835Z,28.3
2017-12-08T17:14:14.568Z,28.4
2017-12-08T17:16:07.350Z,28.3
2017-12-08T17:18:11.404Z,28.4
2017-12-08T17:20:08.507Z,28.4
2017-12-08T17:22:05.306Z,28.5
2017-12-08T17:24:07.988Z,28.4
2017-12-08T17:26:05.945Z,28.4
2017-12-08T17:32:43.724Z,28.5
2017-12-08T17:34:49.629Z,28.5
2017-12-08T17:36:05.488Z,28.4
2017-12-08T17:38:05.383Z,28.4
2017-12-08T17:40:07.674Z,28.4
2017-12-08T17:42:05.964Z,28.6
2017-12-08T17:44:05.731Z,28.5
2017-12-08T17:46:05.501Z,28.5
2017-12-08T17:48:05.809Z,28.5
2017-12-08T17:50:08.109Z,28.4
2017-12-08T17:52:06.125Z,28.4
2017-12-08T17:54:05.960Z,28.4
2017-12-08T17:56:05.692Z,28.4
2017-12-08T17:58:05.436Z,28.4
2017-12-08T18:00:08.215Z,28.5
2017-12-08T18:02:06.001Z,28.5
2017-12-08T18:04:05.740Z,28.4
2017-12-08T18:06:05.475Z,28.5
2017-12-08T18:08:06.055Z,28.5
2017-12-08T18:10:08.705Z,28.4
2017-12-08T18:12:10.505Z,28.4
2017-12-08T18:14:10.283Z,28.5
2017-12-08T18:16:07.047Z,28.4
2017-12-08T18:18:05.987Z,28.4
2017-12-08T18:20:08.302Z,28.4
2017-12-08T18:22:13.188Z,28.5
2017-12-08T18:24:05.928Z,28.5
2017-12-08T18:26:05.700Z,28.4
2017-12-08T18:28:06.440Z,28.5
2017-12-08T18:30:05.767Z,28.4
2017-12-08T18:32:08.603Z,28.5
2017-12-08T18:34:05.377Z,28.5
2017-12-08T18:36:05.178Z,28.5
2017-12-08T18:38:06.939Z,28.4
2017-12-08T18:40:05.251Z,28.5
2017-12-08T18:42:06.021Z,28.5
2017-12-08T18:44:08.294Z,28.5
2017-12-08T18:46:05.527Z,28.5
2017-12-08T18:48:05.339Z,28.5
2017-12-08T18:50:06.087Z,28.5
2017-12-08T18:52:05.907Z,28.5
2017-12-08T18:54:05.664Z,28.6
2017-12-08T18:56:05.414Z,28.5
2017-12-08T18:58:05.230Z,28.5
2017-12-08T19:00:05.207Z,28.5
2017-12-08T19:02:05.591Z,28.5
2017-12-08T19:04:05.314Z,28.5
2017-12-08T19:06:05.655Z,28.7
2017-12-08T19:08:05.895Z,28.5
2017-12-08T19:10:05.139Z,28.8
2017-12-08T19:12:07.911Z,28.7
2017-12-08T19:14:05.624Z,28.5
2017-12-08T19:16:07.958Z,28.5
2017-12-08T19:18:05.978Z,28.5
2017-12-08T19:20:05.802Z,28.5
2017-12-08T19:22:05.606Z,28.5
2017-12-08T19:24:05.896Z,28.6
2017-12-08T19:26:05.636Z,28.5
2017-12-08T19:28:05.927Z,28.5
2017-12-08T19:30:05.234Z,28.5
2017-12-08T19:32:05.994Z,28.5
2017-12-08T19:34:10.930Z,28.5
2017-12-08T19:36:05.146Z,28.5
2017-12-08T19:38:05.917Z,28.7
2017-12-08T19:40:05.738Z,28.5
2017-12-08T19:42:07.589Z,28.5
2017-12-08T19:44:08.444Z,28.6
2017-12-08T19:46:05.223Z,28.5
2017-12-08T19:48:06.002Z,28.5
2017-12-08T19:50:05.838Z,28.5
2017-12-08T19:52:07.712Z,28.5
2017-12-08T19:54:07.988Z,28.5
2017-12-08T19:56:05.319Z,28.5
2017-12-08T19:58:05.095Z,28.5
2017-12-08T20:00:05.898Z,28.5
2017-12-08T20:02:05.196Z,28.5
2017-12-08T20:04:11.049Z,28.4
2017-12-08T20:06:05.806Z,28.5
2017-12-08T20:08:05.065Z,28.6
2017-12-08T20:10:05.878Z,28.4
2017-12-08T20:12:05.702Z,28.4
2017-12-08T20:14:05.662Z,28.4
2017-12-08T20:16:05.497Z,28.3
2017-12-08T20:18:08.142Z,28.4
2017-12-08T20:20:05.039Z,28.4
2017-12-08T20:22:05.904Z,28.4
2017-12-08T20:24:08.270Z,28.4
2017-12-08T20:26:05.119Z,28.6
2017-12-08T20:28:07.823Z,28.4
2017-12-08T20:30:05.654Z,28.4
2017-12-08T20:32:05.497Z,28.3
2017-12-08T20:34:05.382Z,28.4
2017-12-08T20:36:05.312Z,28.4
2017-12-08T20:38:05.119Z,28.6
2017-12-08T20:40:05.468Z,28.6
2017-12-08T20:42:05.298Z,28.5
2017-12-08T20:44:05.075Z,28.6
2017-12-08T20:46:10.910Z,28.6
2017-12-08T20:48:05.617Z,28.6
2017-12-08T20:50:05.897Z,28.6
2017-12-08T20:52:05.248Z,28.4
2017-12-08T20:54:05.960Z,28.6
2017-12-08T20:56:05.765Z,28.6
2017-12-08T20:58:07.645Z,28.6
2017-12-08T21:00:05.391Z,28.6
2017-12-08T21:02:05.289Z,28.5
2017-12-08T21:04:07.631Z,28.6
2017-12-08T21:06:18.057Z,28.8
2017-12-08T21:08:08.378Z,28.6
2017-12-08T21:10:08.358Z,28.6
2017-12-08T21:12:07.641Z,28.6
2017-12-08T21:14:05.396Z,28.6
2017-12-08T21:16:05.345Z,28.6
2017-12-08T21:18:05.322Z,28.6
2017-12-08T21:20:07.659Z,28.6
2017-12-08T21:22:05.404Z,28.6
2017-12-08T21:24:05.460Z,28.6
2017-12-08T21:26:07.797Z,28.6
2017-12-08T21:28:05.640Z,28.7
2017-12-08T21:30:05.416Z,28.5
2017-12-08T21:32:05.739Z,28.7
2017-12-08T21:34:10.680Z,28.5
2017-12-08T21:36:05.468Z,28.7
2017-12-08T21:38:05.783Z,28.7
2017-12-08T21:40:10.642Z,28.5
2017-12-08T21:42:08.430Z,28.7
2017-12-08T21:44:05.167Z,28.7
2017-12-08T21:46:08.577Z,28.7
2017-12-08T21:48:07.861Z,28.6
2017-12-08T21:50:08.295Z,28.5
2017-12-08T21:52:10.161Z,28.5
2017-12-08T21:54:05.909Z,28.5
2017-12-08T21:56:05.633Z,28.6
2017-12-08T21:58:05.393Z,28.5
2017-12-08T22:00:05.137Z,28.4
2017-12-08T22:02:13.474Z,28.5
2017-12-08T22:04:08.470Z,28.3
2017-12-08T22:06:10.373Z,28.4
2017-12-08T22:08:05.149Z,28.4
2017-12-08T22:10:05.956Z,28.3
2017-12-08T22:12:08.263Z,28.5
2017-12-08T22:14:05.546Z,28.3
2017-12-08T22:16:05.336Z,28.3
2017-12-08T22:18:05.287Z,28.5
2017-12-08T22:20:06.096Z,28.5
2017-12-08T22:22:08.468Z,28.3
2017-12-08T22:24:05.409Z,28.4
2017-12-08T22:26:07.791Z,28.4
2017-12-08T22:28:05.561Z,28.2
2017-12-08T22:30:05.353Z,28.2
2017-12-08T22:32:05.084Z,28.4
2017-12-08T22:34:05.375Z,28.4
2017-12-08T22:36:05.725Z,28.3
2017-12-08T22:38:05.548Z,28.3
2017-12-08T22:40:08.364Z,28.3
2017-12-08T22:42:07.668Z,28.4
2017-12-08T22:44:05.415Z,28.4
2017-12-08T22:46:05.224Z,28.4
2017-12-08T22:48:08.537Z,28.3
2017-12-08T22:50:05.297Z,28.4
2017-12-08T22:52:05.119Z,28.3
2017-12-08T22:54:05.418Z,28.3
2017-12-08T22:56:05.393Z,28.3
2017-12-08T22:58:05.680Z,28.3
2017-12-08T23:00:05.424Z,28.3
2017-12-08T23:02:10.740Z,28.3
2017-12-08T23:04:05.504Z,28.3
2017-12-08T23:06:05.256Z,28.2
2017-12-08T23:08:06.052Z,28.2
2017-12-08T23:10:05.871Z,28.2
2017-12-08T23:12:05.662Z,28.2
2017-12-08T23:14:05.870Z,28.2
2017-12-08T23:16:05.839Z,28.2
2017-12-08T23:18:05.360Z,28.2
2017-12-08T23:20:05.651Z,28.2
2017-12-08T23:22:13.059Z,28.2
2017-12-08T23:24:06.000Z,28.2
2017-12-08T23:26:05.739Z,28.2
2017-12-08T23:28:05.493Z,28.2
2017-12-08T23:30:05.291Z,28.1
2017-12-08T23:32:05.244Z,28.1
2017-12-08T23:34:05.194Z,28.1
2017-12-08T23:36:11.015Z,28.1
2017-12-08T23:38:05.907Z,28.1
2017-12-08T23:40:05.825Z,28.2
2017-12-08T23:42:05.585Z,28.1
2017-12-08T23:44:08.012Z,28.1
2017-12-08T23:46:06.819Z,28.1
2017-12-08T23:48:05.674Z,28.1
2017-12-08T23:50:05.980Z,28.1
2017-12-08T23:52:08.307Z,28.1
2017-12-08T23:54:05.110Z,28.1
2017-12-08T23:56:08.481Z,28.1
2017-12-08T23:58:05.326Z,28.1
